createdAt,value
2022-08-25T00:00:25.734Z,99.60
2022-08-25T00:02:56.831Z,99.70
2022-08-25T00:05:32.379Z,99.70
2022-08-25T00:08:08.517Z,99.70
2022-08-25T00:10:40.059Z,99.80
2022-08-25T00:13:11.472Z,99.90
2022-08-25T00:15:42.392Z,99.90
2022-08-25T00:18:19.766Z,99.90
2022-08-25T00:20:51.413Z,99.90
2022-08-25T00:23:23.298Z,99.90
2022-08-25T00:25:55.296Z,99.90
2022-08-25T00:28:26.234Z,99.90
2022-08-25T00:30:58.874Z,99.90
2022-08-25T00:33:33.644Z,99.90
2022-08-25T00:36:05.278Z,99.90
2022-08-25T00:38:38.182Z,99.90
2022-08-25T00:41:11.503Z,99.90
2022-08-25T00:43:42.478Z,99.90
2022-08-25T00:46:18.837Z,99.90
2022-08-25T00:49:00.821Z,99.90
2022-08-25T00:51:45.203Z,99.90
2022-08-25T00:54:27.517Z,99.90
2022-08-25T00:57:00.641Z,99.90
2022-08-25T00:59:31.744Z,99.90
2022-08-25T01:02:04.607Z,99.90
2022-08-25T01:04:37.722Z,99.90
2022-08-25T01:07:13.837Z,99.90
2022-08-25T01:09:51.916Z,99.90
2022-08-25T01:12:23.247Z,99.90
2022-08-25T01:14:55.310Z,99.90
2022-08-25T01:17:28.239Z,99.90
2022-08-25T01:19:59.147Z,99.90
2022-08-25T01:22:30.088Z,99.90
2022-08-25T01:25:07.882Z,99.90
2022-08-25T01:27:38.817Z,99.90
2022-08-25T01:30:10.615Z,99.90
2022-08-25T01:32:41.509Z,99.90
2022-08-25T01:35:12.512Z,99.90
2022-08-25T01:37:43.447Z,99.90
2022-08-25T01:40:14.850Z,99.90
2022-08-25T01:43:15.052Z,99.90
2022-08-25T01:45:48.511Z,99.90
2022-08-25T01:48:19.706Z,99.90
2022-08-25T01:50:50.627Z,99.90
2022-08-25T01:53:33.243Z,99.90
2022-08-25T01:56:14.833Z,99.90
2022-08-25T01:58:49.873Z,99.90
2022-08-25T02:01:24.262Z,99.90
2022-08-25T02:03:56.732Z,99.90
2022-08-25T02:06:33.314Z,99.90
2022-08-25T02:09:17.090Z,99.90
2022-08-25T02:11:48.278Z,99.90
2022-08-25T02:14:20.082Z,99.90
2022-08-25T02:16:53.195Z,99.90
2022-08-25T02:19:25.983Z,99.90
2022-08-25T02:21:58.355Z,99.90
2022-08-25T02:24:29.700Z,99.90
2022-08-25T02:27:01.279Z,99.90
2022-08-25T02:29:32.858Z,99.90
2022-08-25T02:32:04.498Z,99.90
2022-08-25T02:34:35.669Z,99.90
2022-08-25T02:37:06.783Z,99.90
2022-08-25T02:39:37.725Z,99.90
2022-08-25T02:42:08.661Z,99.90
2022-08-25T02:44:39.570Z,99.90
2022-08-25T02:47:10.442Z,99.90
2022-08-25T02:49:41.521Z,99.90
2022-08-25T02:52:13.229Z,99.90
2022-08-25T02:54:44.535Z,99.90
2022-08-25T02:57:15.916Z,99.90
2022-08-25T02:59:48.487Z,99.90
2022-08-25T03:02:19.380Z,99.90
2022-08-25T03:04:52.283Z,99.90
2022-08-25T03:07:26.041Z,99.90
2022-08-25T03:09:56.994Z,99.90
2022-08-25T03:12:27.958Z,99.90
2022-08-25T03:14:58.850Z,99.90
2022-08-25T03:17:29.745Z,99.90
2022-08-25T03:20:01.101Z,99.90
2022-08-25T03:22:32.108Z,99.90
2022-08-25T03:25:24.249Z,99.90
2022-08-25T03:27:55.611Z,99.90
2022-08-25T03:30:27.841Z,99.90
2022-08-25T03:32:58.830Z,99.90
2022-08-25T03:35:30.046Z,99.90
2022-08-25T03:38:03.141Z,99.90
2022-08-25T03:40:34.551Z,99.90
2022-08-25T03:43:05.605Z,99.90
2022-08-25T03:45:42.798Z,99.90
2022-08-25T03:48:16.405Z,99.90
2022-08-25T03:50:51.545Z,99.90
2022-08-25T03:53:23.116Z,99.90
2022-08-25T03:55:54.013Z,99.90
2022-08-25T03:58:24.997Z,99.90
2022-08-25T04:01:00.202Z,99.90
2022-08-25T04:03:31.255Z,99.90
2022-08-25T04:06:05.167Z,99.90
2022-08-25T04:08:37.520Z,99.90
2022-08-25T04:11:22.438Z,99.90
2022-08-25T04:13:57.755Z,99.90
2022-08-25T04:16:33.519Z,99.90
2022-08-25T04:19:09.412Z,99.90
2022-08-25T04:21:42.121Z,99.90
2022-08-25T04:24:14.434Z,99.90
2022-08-25T04:26:50.176Z,99.90
2022-08-25T04:29:24.286Z,99.90
2022-08-25T04:31:55.719Z,99.90
2022-08-25T04:34:29.582Z,99.90
2022-08-25T04:37:05.545Z,99.90
2022-08-25T04:39:37.178Z,99.90
2022-08-25T04:42:08.231Z,99.90
2022-08-25T04:44:39.176Z,99.90
2022-08-25T04:47:11.082Z,99.90
2022-08-25T04:49:42.068Z,99.90
2022-08-25T04:52:14.525Z,99.90
2022-08-25T04:54:45.798Z,99.90
2022-08-25T04:57:16.697Z,99.90
2022-08-25T04:59:47.624Z,99.90
2022-08-25T05:02:19.530Z,99.90
2022-08-25T05:04:50.629Z,99.90
2022-08-25T05:07:21.574Z,99.90
2022-08-25T05:09:52.502Z,99.90
2022-08-25T05:12:23.423Z,99.90
2022-08-25T05:14:54.739Z,99.90
2022-08-25T05:17:25.797Z,99.90
2022-08-25T05:19:56.705Z,99.90
2022-08-25T05:22:27.651Z,99.90
2022-08-25T05:24:58.576Z,99.90
2022-08-25T05:27:29.711Z,99.90
2022-08-25T05:30:00.620Z,99.90
2022-08-25T05:32:31.493Z,99.90
2022-08-25T05:35:02.485Z,99.90
2022-08-25T05:37:34.088Z,99.90
2022-08-25T05:40:09.086Z,99.90
2022-08-25T05:42:40.346Z,99.90
2022-08-25T05:45:16.672Z,99.90
2022-08-25T05:47:51.478Z,99.90
2022-08-25T05:50:22.759Z,99.90
2022-08-25T05:52:54.773Z,99.90
2022-08-25T05:55:25.803Z,99.90
2022-08-25T05:57:56.746Z,99.90
2022-08-25T06:00:27.691Z,99.90
2022-08-25T06:02:58.615Z,99.90
2022-08-25T06:05:29.732Z,99.90
2022-08-25T06:08:00.714Z,99.90
2022-08-25T06:10:31.686Z,99.90
2022-08-25T06:13:03.802Z,99.90
2022-08-25T06:15:37.553Z,99.90
2022-08-25T06:18:08.561Z,99.90
2022-08-25T06:20:39.534Z,99.90
2022-08-25T06:23:10.427Z,99.90
2022-08-25T06:25:41.390Z,99.90
2022-08-25T06:28:12.244Z,99.90
2022-08-25T06:30:43.343Z,99.90
2022-08-25T06:33:15.191Z,99.90
2022-08-25T06:35:46.126Z,99.90
2022-08-25T06:38:17.028Z,99.90
2022-08-25T06:40:49.498Z,99.90
2022-08-25T06:43:21.615Z,99.90
2022-08-25T06:45:52.595Z,99.90
2022-08-25T06:48:24.000Z,99.90
2022-08-25T06:50:54.885Z,99.90
2022-08-25T06:53:25.802Z,99.90
2022-08-25T06:55:59.234Z,99.90
2022-08-25T06:58:33.840Z,99.90
2022-08-25T07:01:14.915Z,99.90
2022-08-25T07:03:52.552Z,99.90
2022-08-25T07:06:24.990Z,99.90
2022-08-25T07:08:55.915Z,99.90
2022-08-25T07:11:27.759Z,99.90
2022-08-25T07:13:58.726Z,99.90
2022-08-25T07:16:31.768Z,99.90
2022-08-25T07:19:03.388Z,99.90
2022-08-25T07:21:37.038Z,99.90
2022-08-25T07:24:11.782Z,99.90
2022-08-25T07:26:43.979Z,99.90
2022-08-25T07:29:32.890Z,99.90
2022-08-25T07:32:05.390Z,99.90
2022-08-25T07:34:54.857Z,99.90
2022-08-25T07:37:47.523Z,99.90
2022-08-25T07:40:23.649Z,99.90
2022-08-25T07:42:58.617Z,99.90
2022-08-25T07:45:32.573Z,99.90
2022-08-25T07:48:09.656Z,99.90
2022-08-25T07:50:45.412Z,99.90
2022-08-25T07:53:17.834Z,99.90
2022-08-25T07:55:48.812Z,99.90
2022-08-25T07:58:19.705Z,99.90
2022-08-25T08:00:53.215Z,99.90
2022-08-25T08:03:44.780Z,99.90
2022-08-25T08:06:17.751Z,99.90
2022-08-25T08:08:51.106Z,99.90
2022-08-25T08:11:31.004Z,99.90
2022-08-25T08:14:02.868Z,99.90
2022-08-25T08:16:34.114Z,99.90
2022-08-25T08:19:06.825Z,99.90
2022-08-25T08:21:37.828Z,99.90
2022-08-25T08:24:24.759Z,99.90
2022-08-25T08:27:00.543Z,99.90
2022-08-25T08:29:31.736Z,99.90
2022-08-25T08:32:08.418Z,99.90
2022-08-25T08:35:00.139Z,99.90
2022-08-25T08:37:31.664Z,99.90
2022-08-25T08:40:03.439Z,99.90
2022-08-25T08:43:17.891Z,99.80
2022-08-25T08:45:53.715Z,99.60
2022-08-25T08:48:33.791Z,99.30
2022-08-25T08:51:23.176Z,99.20
2022-08-25T08:54:15.158Z,99.10
2022-08-25T08:56:51.130Z,99.00
2022-08-25T08:59:30.557Z,98.60
2022-08-25T09:02:06.149Z,98.50
2022-08-25T09:04:56.011Z,98.50
2022-08-25T09:07:48.571Z,98.20
2022-08-25T09:10:44.069Z,98.40
2022-08-25T09:13:57.417Z,98.10
2022-08-25T09:17:07.094Z,97.90
2022-08-25T09:20:21.781Z,98.00
2022-08-25T09:23:05.187Z,97.80
2022-08-25T09:25:53.996Z,97.60
2022-08-25T09:28:55.251Z,97.40
2022-08-25T09:31:35.757Z,97.20
2022-08-25T09:34:17.321Z,97.20
2022-08-25T09:36:52.794Z,97.40
2022-08-25T09:39:24.774Z,97.20
2022-08-25T09:42:00.436Z,96.90
2022-08-25T09:44:44.519Z,96.60
2022-08-25T09:47:24.559Z,96.40
2022-08-25T09:50:01.572Z,96.20
2022-08-25T09:52:41.244Z,96.10
2022-08-25T09:55:13.653Z,95.70
2022-08-25T09:57:52.735Z,95.50
2022-08-25T10:00:33.937Z,95.20
2022-08-25T10:03:22.743Z,95.50
2022-08-25T10:05:57.849Z,95.40
2022-08-25T10:08:58.190Z,95.10
2022-08-25T10:11:40.734Z,94.70
2022-08-25T10:14:44.467Z,94.90
2022-08-25T10:17:33.805Z,94.70
2022-08-25T10:20:10.575Z,94.30
2022-08-25T10:22:43.838Z,94.20
2022-08-25T10:25:21.418Z,94.10
2022-08-25T10:28:23.838Z,94.10
2022-08-25T10:31:24.461Z,93.80
2022-08-25T10:34:18.102Z,93.70
2022-08-25T10:37:00.536Z,93.80
2022-08-25T10:40:04.700Z,93.90
2022-08-25T10:43:13.121Z,93.70
2022-08-25T10:46:16.439Z,93.50
2022-08-25T10:49:29.067Z,93.40
2022-08-25T10:52:24.352Z,92.80
2022-08-25T10:55:12.456Z,93.00
2022-08-25T10:58:11.246Z,92.80
2022-08-25T11:01:19.029Z,93.00
2022-08-25T11:04:17.634Z,92.50
2022-08-25T11:07:14.546Z,92.10
2022-08-25T11:09:51.302Z,92.10
2022-08-25T11:12:43.902Z,91.50
2022-08-25T11:15:27.900Z,90.60
2022-08-25T11:18:14.667Z,90.40
2022-08-25T11:21:12.376Z,88.40
2022-08-25T11:24:26.789Z,86.50
2022-08-25T11:26:59.956Z,87.10
2022-08-25T11:29:36.731Z,86.50
2022-08-25T11:32:10.819Z,88.60
2022-08-25T11:34:45.180Z,84.50
2022-08-25T11:37:25.597Z,85.20
2022-08-25T11:40:32.845Z,85.40
2022-08-25T11:43:30.098Z,84.10
2022-08-25T11:46:57.525Z,82.40
2022-08-25T11:50:08.448Z,81.50
2022-08-25T11:52:49.264Z,79.50
2022-08-25T11:55:27.856Z,78.90
2022-08-25T11:58:32.006Z,79.20
2022-08-25T12:01:10.708Z,80.00
2022-08-25T12:03:44.704Z,80.80
2022-08-25T12:06:30.076Z,80.80
2022-08-25T12:09:00.938Z,81.00
2022-08-25T12:11:37.927Z,80.20
2022-08-25T12:14:24.689Z,79.50
2022-08-25T12:17:20.421Z,76.10
2022-08-25T12:19:56.445Z,75.80
2022-08-25T12:22:33.900Z,74.70
2022-08-25T12:25:36.292Z,73.90
2022-08-25T12:28:57.202Z,73.70
2022-08-25T12:32:21.143Z,73.50
2022-08-25T12:35:32.881Z,73.20
2022-08-25T12:38:19.109Z,74.00
2022-08-25T12:40:50.068Z,71.40
2022-08-25T12:43:52.606Z,71.80
2022-08-25T12:46:24.182Z,72.00
2022-08-25T12:49:14.342Z,72.80
2022-08-25T12:52:20.371Z,72.10
2022-08-25T12:55:03.173Z,70.80
2022-08-25T12:58:04.714Z,71.30
2022-08-25T13:01:17.604Z,72.10
2022-08-25T13:04:37.168Z,70.50
2022-08-25T13:07:19.946Z,71.30
2022-08-25T13:10:37.519Z,71.50
2022-08-25T13:13:53.343Z,71.60
2022-08-25T13:16:30.201Z,71.40
2022-08-25T13:19:21.580Z,69.60
2022-08-25T13:21:55.276Z,69.50
2022-08-25T13:24:42.170Z,68.80
2022-08-25T13:27:32.825Z,69.40
2022-08-25T13:30:08.468Z,69.20
2022-08-25T13:32:41.624Z,69.60
2022-08-25T13:35:32.939Z,68.10
2022-08-25T13:38:19.345Z,67.50
2022-08-25T13:40:50.305Z,67.30
2022-08-25T13:43:32.456Z,66.70
2022-08-25T13:46:08.266Z,65.30
2022-08-25T13:48:49.750Z,65.70
2022-08-25T13:51:31.516Z,65.50
2022-08-25T13:54:39.148Z,65.00
2022-08-25T13:57:30.350Z,65.00
2022-08-25T14:00:09.362Z,65.80
2022-08-25T14:02:53.364Z,66.30
2022-08-25T14:06:08.155Z,65.80
2022-08-25T14:08:43.826Z,65.10
2022-08-25T14:11:36.549Z,65.90
2022-08-25T14:14:15.134Z,66.70
2022-08-25T14:16:58.497Z,67.10
2022-08-25T14:19:33.207Z,67.30
2022-08-25T14:22:06.937Z,67.20
2022-08-25T14:24:40.845Z,67.20
2022-08-25T14:27:12.032Z,67.30
2022-08-25T14:29:43.031Z,66.90
2022-08-25T14:32:16.977Z,67.00
2022-08-25T14:34:48.071Z,67.20
2022-08-25T14:37:25.656Z,67.20
2022-08-25T14:40:00.219Z,67.00
2022-08-25T14:42:42.634Z,66.40
2022-08-25T14:45:16.057Z,65.80
2022-08-25T14:48:00.258Z,65.90
2022-08-25T14:51:02.537Z,67.30
2022-08-25T14:53:38.885Z,67.30
2022-08-25T14:56:16.101Z,67.50
2022-08-25T14:58:51.272Z,67.30
2022-08-25T15:01:28.586Z,67.30
2022-08-25T15:07:39.679Z,68.20
2022-08-25T15:10:22.207Z,68.20
2022-08-25T15:13:02.917Z,68.60
2022-08-25T15:15:52.699Z,68.60
2022-08-25T15:18:25.785Z,69.00
2022-08-25T15:20:57.325Z,68.30
2022-08-25T15:23:28.406Z,69.40
2022-08-25T15:26:01.490Z,69.50
2022-08-25T15:28:32.446Z,69.00
2022-08-25T15:31:03.414Z,69.30
2022-08-25T15:33:34.838Z,69.30
2022-08-25T15:36:16.234Z,70.10
2022-08-25T15:38:54.605Z,71.00
2022-08-25T15:41:27.180Z,70.40
2022-08-25T15:43:59.671Z,69.40
2022-08-25T15:46:31.120Z,68.60
2022-08-25T15:49:03.725Z,68.00
2022-08-25T15:51:35.601Z,67.30
2022-08-25T15:54:06.564Z,67.30
2022-08-25T15:56:37.613Z,65.70
2022-08-25T15:59:27.885Z,64.70
2022-08-25T16:02:15.337Z,64.80
2022-08-25T16:04:50.067Z,63.60
2022-08-25T16:07:30.892Z,63.40
2022-08-25T16:10:04.882Z,63.70
2022-08-25T16:12:42.739Z,63.70
2022-08-25T16:15:15.236Z,63.60
2022-08-25T16:17:51.156Z,63.20
2022-08-25T16:20:23.525Z,62.20
2022-08-25T16:22:54.648Z,63.10
2022-08-25T16:25:27.345Z,61.80
2022-08-25T16:27:58.634Z,62.00
2022-08-25T16:30:32.638Z,62.30
2022-08-25T16:33:03.699Z,61.90
2022-08-25T16:35:37.190Z,61.40
2022-08-25T16:38:14.813Z,60.80
2022-08-25T16:40:54.468Z,61.20
2022-08-25T16:43:47.125Z,61.30
2022-08-25T16:46:27.516Z,61.10
2022-08-25T16:49:05.909Z,60.70
2022-08-25T16:51:47.767Z,61.40
2022-08-25T16:54:50.210Z,62.90
2022-08-25T16:57:24.310Z,62.10
2022-08-25T17:00:15.718Z,60.90
2022-08-25T17:02:47.258Z,60.80
2022-08-25T17:05:18.710Z,61.10
2022-08-25T17:08:09.568Z,61.70
2022-08-25T17:10:43.464Z,62.60
2022-08-25T17:13:14.856Z,62.90
2022-08-25T17:15:48.925Z,63.30
2022-08-25T17:18:26.562Z,63.00
2022-08-25T17:21:07.657Z,64.30
2022-08-25T17:23:40.370Z,64.40
2022-08-25T17:26:17.354Z,65.00
2022-08-25T17:28:48.430Z,65.00
2022-08-25T17:31:20.142Z,64.90
2022-08-25T17:33:56.746Z,65.50
2022-08-25T17:36:28.934Z,65.80
2022-08-25T17:39:00.075Z,66.50
2022-08-25T17:41:31.198Z,67.00
2022-08-25T17:44:02.286Z,67.60
2022-08-25T17:46:33.430Z,68.60
2022-08-25T17:49:07.773Z,68.40
2022-08-25T17:51:38.937Z,69.10
2022-08-25T17:54:11.016Z,69.30
2022-08-25T17:56:42.162Z,70.20
2022-08-25T17:59:13.420Z,71.00
2022-08-25T18:01:44.430Z,71.00
2022-08-25T18:04:19.416Z,71.70
2022-08-25T18:06:51.819Z,72.10
2022-08-25T18:09:22.892Z,72.50
2022-08-25T18:11:56.294Z,73.10
2022-08-25T18:14:29.791Z,73.70
2022-08-25T18:17:03.671Z,74.60
2022-08-25T18:19:36.230Z,75.00
2022-08-25T18:22:08.344Z,75.50
2022-08-25T18:24:39.649Z,75.70
2022-08-25T18:27:11.926Z,75.70
2022-08-25T18:29:42.955Z,76.50
2022-08-25T18:32:13.850Z,76.70
2022-08-25T18:34:44.775Z,77.50
2022-08-25T18:37:34.185Z,77.80
2022-08-25T18:40:24.962Z,77.60
2022-08-25T18:43:03.977Z,78.60
2022-08-25T18:45:47.989Z,78.60
2022-08-25T18:48:20.549Z,79.00
2022-08-25T18:50:53.725Z,79.60
2022-08-25T18:53:30.453Z,79.10
2022-08-25T18:56:10.406Z,79.30
2022-08-25T18:58:41.338Z,79.80
2022-08-25T19:01:18.248Z,80.10
2022-08-25T19:03:50.363Z,80.80
2022-08-25T19:06:22.036Z,81.00
2022-08-25T19:08:53.092Z,81.20
2022-08-25T19:11:24.070Z,81.20
2022-08-25T19:13:55.100Z,81.50
2022-08-25T19:16:38.361Z,81.80
2022-08-25T19:19:13.232Z,81.70
2022-08-25T19:21:44.877Z,81.80
2022-08-25T19:24:20.070Z,82.30
2022-08-25T19:26:54.551Z,82.40
2022-08-25T19:29:26.255Z,81.50
2022-08-25T19:32:01.346Z,81.70
2022-08-25T19:34:41.559Z,82.20
2022-08-25T19:37:17.301Z,82.20
2022-08-25T19:39:53.941Z,83.10
2022-08-25T19:42:35.075Z,83.10
2022-08-25T19:45:10.971Z,84.10
2022-08-25T19:47:41.962Z,84.70
2022-08-25T19:50:16.737Z,85.00
2022-08-25T19:52:49.957Z,85.60
2022-08-25T19:55:21.924Z,85.80
2022-08-25T19:57:53.426Z,86.30
2022-08-25T20:00:32.616Z,86.50
2022-08-25T20:03:04.286Z,86.90
2022-08-25T20:05:37.124Z,86.80
2022-08-25T20:08:08.408Z,87.10
2022-08-25T20:10:41.910Z,87.50
2022-08-25T20:13:14.034Z,87.80
2022-08-25T20:15:46.279Z,87.70
2022-08-25T20:18:17.519Z,88.50
2022-08-25T20:20:48.954Z,88.80
2022-08-25T20:23:58.179Z,89.50
2022-08-25T20:26:29.310Z,89.80
2022-08-25T20:29:00.260Z,90.10
2022-08-25T20:31:32.352Z,90.30
2022-08-25T20:34:03.775Z,90.50
2022-08-25T20:36:36.790Z,90.70
2022-08-25T20:39:10.568Z,90.90
2022-08-25T20:41:41.509Z,91.00
2022-08-25T20:44:12.786Z,91.00
2022-08-25T20:46:43.876Z,91.10
2022-08-25T20:49:15.547Z,91.10
2022-08-25T20:51:46.745Z,91.30
2022-08-25T20:54:21.596Z,91.30
2022-08-25T20:56:55.948Z,91.40
2022-08-25T20:59:27.866Z,91.60
2022-08-25T21:01:59.449Z,91.50
2022-08-25T21:04:30.945Z,91.70
2022-08-25T21:07:02.275Z,91.90
2022-08-25T21:09:35.578Z,92.00
2022-08-25T21:12:07.399Z,92.00
2022-08-25T21:14:41.670Z,92.00
2022-08-25T21:17:15.578Z,92.10
2022-08-25T21:19:50.727Z,92.50
2022-08-25T21:22:21.765Z,92.70
2022-08-25T21:24:53.044Z,93.00
2022-08-25T21:27:24.170Z,93.00
2022-08-25T21:29:55.422Z,93.10
2022-08-25T21:32:26.709Z,93.40
2022-08-25T21:34:57.769Z,93.60
2022-08-25T21:37:29.420Z,93.60
2022-08-25T21:40:00.679Z,93.40
2022-08-25T21:42:31.654Z,93.40
2022-08-25T21:45:03.287Z,93.60
2022-08-25T21:47:34.670Z,93.80
2022-08-25T21:50:06.481Z,93.90
2022-08-25T21:52:37.558Z,94.00
2022-08-25T21:55:09.102Z,94.20
2022-08-25T21:57:47.124Z,94.50
2022-08-25T22:00:18.209Z,94.60
2022-08-25T22:02:52.933Z,94.80
2022-08-25T22:05:23.965Z,94.90
2022-08-25T22:07:55.774Z,94.90
2022-08-25T22:10:27.597Z,95.20
2022-08-25T22:12:59.090Z,95.50
2022-08-25T22:15:31.355Z,95.60
2022-08-25T22:18:02.548Z,95.50
2022-08-25T22:20:34.597Z,95.60
2022-08-25T22:23:10.476Z,95.60
2022-08-25T22:25:51.690Z,95.90
2022-08-25T22:28:23.535Z,95.90
2022-08-25T22:30:54.895Z,95.90
2022-08-25T22:33:25.848Z,96.10
2022-08-25T22:35:59.751Z,96.40
2022-08-25T22:38:31.148Z,96.50
2022-08-25T22:41:02.731Z,96.50
2022-08-25T22:43:34.482Z,96.70
2022-08-25T22:46:07.679Z,96.90
2022-08-25T22:48:44.015Z,97.10
2022-08-25T22:51:20.850Z,97.30
2022-08-25T22:53:53.930Z,97.50
2022-08-25T22:56:36.100Z,97.70
2022-08-25T22:59:11.121Z,98.10
2022-08-25T23:01:45.297Z,97.90
2022-08-25T23:04:16.205Z,98.00
2022-08-25T23:06:48.681Z,98.10
2022-08-25T23:09:20.897Z,98.30
2022-08-25T23:11:52.479Z,98.50
2022-08-25T23:14:24.470Z,98.50
2022-08-25T23:16:56.002Z,98.70
2022-08-25T23:19:28.165Z,98.80
2022-08-25T23:22:12.589Z,99.00
2022-08-25T23:24:51.995Z,99.20
2022-08-25T23:27:23.106Z,99.30
2022-08-25T23:29:54.338Z,99.40
2022-08-25T23:32:25.626Z,99.50
2022-08-25T23:34:59.460Z,99.60
2022-08-25T23:37:31.177Z,99.70
2022-08-25T23:40:03.592Z,99.60
2022-08-25T23:42:34.829Z,99.70
2022-08-25T23:45:06.470Z,99.90
2022-08-25T23:47:37.437Z,99.90
2022-08-25T23:50:09.451Z,99.90
2022-08-25T23:52:40.359Z,99.90
2022-08-25T23:55:11.892Z,99.90
2022-08-25T23:57:42.814Z,99.90
